createdAt,value
2018-12-04T00:00:38.440Z,1000.45
2018-12-04T00:01:38.460Z,1000.51
2018-12-04T00:02:38.426Z,1000.56
2018-12-04T00:03:38.409Z,1000.60
2018-12-04T00:04:38.423Z,1000.57
2018-12-04T00:05:38.400Z,1000.56
2018-12-04T00:06:38.372Z,1000.64
2018-12-04T00:07:38.359Z,1000.57
2018-12-04T00:08:38.356Z,1000.65
2018-12-04T00:09:38.368Z,1000.68
2018-12-04T00:10:38.328Z,1000.80
2018-12-04T00:11:38.316Z,1000.81
2018-12-04T00:12:38.304Z,1000.85
2018-12-04T00:13:38.293Z,1000.92
2018-12-04T00:14:38.310Z,1000.99
2018-12-04T00:15:38.273Z,1000.92
2018-12-04T00:16:38.261Z,1001.07
2018-12-04T00:17:38.259Z,1001.08
2018-12-04T00:18:38.240Z,1001.07
2018-12-04T00:19:38.255Z,1001.17
2018-12-04T00:20:38.225Z,1001.35
2018-12-04T00:21:38.203Z,1001.33
2018-12-04T00:22:38.202Z,1001.25
2018-12-04T00:23:38.179Z,1001.40
2018-12-04T00:24:38.192Z,1001.35
2018-12-04T00:25:38.163Z,1001.34
2018-12-04T00:26:38.145Z,1001.35
2018-12-04T00:27:38.133Z,1001.32
2018-12-04T00:28:38.123Z,1001.30
2018-12-04T00:29:38.135Z,1001.33
2018-12-04T00:30:38.100Z,1001.36
2018-12-04T00:31:38.094Z,1001.45
2018-12-04T00:32:38.080Z,1001.46
2018-12-04T00:33:38.076Z,1001.54
2018-12-04T00:34:38.080Z,1001.49
2018-12-04T00:35:38.065Z,1001.69
2018-12-04T00:36:38.035Z,1001.59
2018-12-04T00:37:38.027Z,1001.63
2018-12-04T00:38:38.010Z,1001.75
2018-12-04T00:39:38.030Z,1001.62
2018-12-04T00:40:37.992Z,1001.62
2018-12-04T00:41:37.975Z,1001.72
2018-12-04T00:42:37.968Z,1001.78
2018-12-04T00:43:37.953Z,1001.75
2018-12-04T00:44:37.967Z,1001.79
2018-12-04T00:45:37.930Z,1001.89
2018-12-04T00:46:37.920Z,1001.94
2018-12-04T00:47:37.911Z,1002.00
2018-12-04T00:48:37.905Z,1002.08
2018-12-04T00:49:37.911Z,1002.15
2018-12-04T00:50:37.874Z,1002.16
2018-12-04T00:51:37.864Z,1002.19
2018-12-04T00:52:37.850Z,1002.24
2018-12-04T00:53:37.866Z,1002.14
2018-12-04T00:54:37.833Z,1002.37
2018-12-04T00:55:37.843Z,1002.35
2018-12-04T00:56:37.808Z,1002.35
2018-12-04T00:57:37.795Z,1002.38
2018-12-04T00:58:37.788Z,1002.41
2018-12-04T00:59:37.774Z,1002.65
2018-12-04T01:00:37.785Z,1002.58
2018-12-04T01:01:37.756Z,1002.64
2018-12-04T01:02:37.737Z,1002.70
2018-12-04T01:03:37.725Z,1002.60
2018-12-04T01:04:37.730Z,1002.67
2018-12-04T01:05:37.726Z,1002.63
2018-12-04T01:06:37.692Z,1002.72
2018-12-04T01:07:37.686Z,1002.82
2018-12-04T01:08:37.673Z,1002.91
2018-12-04T01:09:37.660Z,1002.91
2018-12-04T01:10:37.676Z,1002.90
2018-12-04T01:11:37.638Z,1002.91
2018-12-04T01:12:37.625Z,1003.02
2018-12-04T01:13:37.635Z,1003.00
2018-12-04T01:14:37.606Z,1003.07
2018-12-04T01:15:37.615Z,1003.04
2018-12-04T01:16:37.579Z,1003.29
2018-12-04T01:17:37.569Z,1003.20
2018-12-04T01:18:37.561Z,1003.23
2018-12-04T01:19:37.546Z,1003.27
2018-12-04T01:20:37.566Z,1003.26
2018-12-04T01:21:37.525Z,1003.38
2018-12-04T01:22:37.522Z,1003.41
2018-12-04T01:23:37.503Z,1003.39
2018-12-04T01:24:37.489Z,1003.47
2018-12-04T01:25:37.503Z,1003.47
2018-12-04T01:26:37.466Z,1003.55
2018-12-04T01:27:37.456Z,1003.63
2018-12-04T01:28:37.451Z,1003.70
2018-12-04T01:29:37.437Z,1003.71
2018-12-04T01:30:37.424Z,1003.77
2018-12-04T01:31:37.436Z,1003.75
2018-12-04T01:32:37.401Z,1003.85
2018-12-04T01:33:37.387Z,1003.77
2018-12-04T01:34:37.382Z,1003.81
2018-12-04T01:35:37.368Z,1003.82
2018-12-04T01:36:37.383Z,1003.82
2018-12-04T01:37:37.345Z,1003.83
2018-12-04T01:38:37.332Z,1003.80
2018-12-04T01:39:37.326Z,1003.80
2018-12-04T01:40:37.312Z,1003.83
2018-12-04T01:41:37.325Z,1003.78
2018-12-04T01:42:37.288Z,1003.81
2018-12-04T01:43:37.273Z,1003.81
2018-12-04T01:44:37.265Z,1003.86
2018-12-04T01:45:37.258Z,1003.91
2018-12-04T01:46:37.267Z,1003.95
2018-12-04T01:47:37.230Z,1003.94
2018-12-04T01:48:37.218Z,1004.03
2018-12-04T01:49:37.207Z,1004.04
2018-12-04T01:50:37.200Z,1004.07
2018-12-04T01:51:37.211Z,1004.11
2018-12-04T01:52:37.173Z,1004.05
2018-12-04T01:53:37.183Z,1004.10
2018-12-04T01:54:37.151Z,1004.09
2018-12-04T01:55:37.138Z,1004.17
2018-12-04T01:56:37.163Z,1004.20
2018-12-04T01:57:37.124Z,1004.20
2018-12-04T01:58:37.107Z,1004.29
2018-12-04T01:59:37.094Z,1004.30
2018-12-04T02:00:37.083Z,1004.34
2018-12-04T02:01:37.097Z,1004.37
2018-12-04T02:02:37.059Z,1004.42
2018-12-04T02:03:37.050Z,1004.39
2018-12-04T02:04:37.037Z,1004.42
2018-12-04T02:05:37.028Z,1004.47
2018-12-04T02:06:37.018Z,1004.52
2018-12-04T02:07:37.029Z,1004.48
2018-12-04T02:08:36.994Z,1004.51
2018-12-04T02:09:36.980Z,1004.46
2018-12-04T02:10:36.970Z,1004.52
2018-12-04T02:11:36.963Z,1004.51
2018-12-04T02:12:36.969Z,1004.55
2018-12-04T02:13:36.943Z,1004.49
2018-12-04T02:14:36.925Z,1004.53
2018-12-04T02:15:36.927Z,1004.55
2018-12-04T02:16:36.909Z,1004.54
2018-12-04T02:17:36.912Z,1004.55
2018-12-04T02:18:36.880Z,1004.60
2018-12-04T02:19:36.874Z,1004.64
2018-12-04T02:20:36.859Z,1004.62
2018-12-04T02:21:36.851Z,1004.67
2018-12-04T02:22:36.862Z,1004.70
2018-12-04T02:23:36.826Z,1004.77
2018-12-04T02:24:36.818Z,1004.81
2018-12-04T02:25:36.803Z,1004.79
2018-12-04T02:26:36.794Z,1004.83
2018-12-04T02:27:36.808Z,1004.81
2018-12-04T02:28:36.767Z,1004.84
2018-12-04T02:29:36.754Z,1005.00
2018-12-04T02:30:36.746Z,1004.93
2018-12-04T02:31:36.731Z,1004.98
2018-12-04T02:32:36.736Z,1004.99
2018-12-04T02:33:36.732Z,1004.98
2018-12-04T02:34:36.699Z,1005.01
2018-12-04T02:35:36.701Z,1005.01
2018-12-04T02:36:36.673Z,1005.01
2018-12-04T02:37:36.666Z,1005.12
2018-12-04T02:38:36.681Z,1005.08
2018-12-04T02:39:36.643Z,1005.12
2018-12-04T02:40:36.697Z,1005.09
2018-12-04T02:41:36.621Z,1005.08
2018-12-04T02:42:36.605Z,1005.09
2018-12-04T02:43:36.622Z,1005.09
2018-12-04T02:44:36.585Z,1005.14
2018-12-04T02:45:36.575Z,1005.08
2018-12-04T02:46:36.573Z,1005.17
2018-12-04T02:47:36.551Z,1005.14
2018-12-04T02:48:36.566Z,1005.18
2018-12-04T02:49:36.536Z,1005.17
2018-12-04T02:50:36.517Z,1005.23
2018-12-04T02:51:36.505Z,1005.23
2018-12-04T02:52:36.495Z,1005.30
2018-12-04T02:53:36.519Z,1005.29
2018-12-04T02:54:36.475Z,1005.31
2018-12-04T02:55:36.461Z,1005.33
2018-12-04T02:56:36.449Z,1005.35
2018-12-04T02:57:36.449Z,1005.41
2018-12-04T02:58:36.454Z,1005.35
2018-12-04T02:59:36.416Z,1005.42
2018-12-04T03:00:36.406Z,1005.48
2018-12-04T03:01:36.404Z,1005.48
2018-12-04T03:02:36.385Z,1005.47
2018-12-04T03:03:36.377Z,1005.48
2018-12-04T03:04:36.387Z,1005.51
2018-12-04T03:05:36.347Z,1005.50
2018-12-04T03:06:36.351Z,1005.55
2018-12-04T03:07:36.327Z,1005.56
2018-12-04T03:08:36.317Z,1005.58
2018-12-04T03:09:36.339Z,1005.65
2018-12-04T03:10:36.292Z,1005.68
2018-12-04T03:11:36.280Z,1005.64
2018-12-04T03:12:36.276Z,1005.67
2018-12-04T03:13:36.268Z,1005.63
2018-12-04T03:14:36.279Z,1005.68
2018-12-04T03:15:36.237Z,1005.69
2018-12-04T03:16:36.232Z,1005.74
2018-12-04T03:17:36.214Z,1005.73
2018-12-04T03:18:36.205Z,1005.77
2018-12-04T03:19:36.214Z,1005.82
2018-12-04T03:20:36.177Z,1005.84
2018-12-04T03:21:36.167Z,1005.85
2018-12-04T03:22:36.157Z,1005.90
2018-12-04T03:23:36.155Z,1005.90
2018-12-04T03:24:36.164Z,1005.93
2018-12-04T03:25:36.123Z,1005.93
2018-12-04T03:26:36.111Z,1005.95
2018-12-04T03:27:36.100Z,1006.00
2018-12-04T03:28:36.095Z,1005.99
2018-12-04T03:29:36.080Z,1006.00
2018-12-04T03:30:36.093Z,1006.02
2018-12-04T03:31:36.065Z,1006.06
2018-12-04T03:32:36.047Z,1006.07
2018-12-04T03:33:36.031Z,1006.13
2018-12-04T03:34:36.027Z,1006.07
2018-12-04T03:35:36.032Z,1006.13
2018-12-04T03:36:36.010Z,1006.14
2018-12-04T03:37:35.988Z,1006.18
2018-12-04T03:38:35.978Z,1006.11
2018-12-04T03:39:35.979Z,1006.23
2018-12-04T03:40:35.982Z,1006.29
2018-12-04T03:41:36.013Z,1006.27
2018-12-04T03:42:35.930Z,1006.31
2018-12-04T03:43:35.922Z,1006.31
2018-12-04T03:44:35.912Z,1006.27
2018-12-04T03:45:35.922Z,1006.37
2018-12-04T03:46:35.889Z,1006.40
2018-12-04T03:47:35.880Z,1006.38
2018-12-04T03:48:35.865Z,1006.50
2018-12-04T03:49:35.850Z,1006.48
2018-12-04T03:50:35.868Z,1006.45
2018-12-04T03:51:35.828Z,1006.49
2018-12-04T03:52:35.819Z,1006.43
2018-12-04T03:53:35.822Z,1006.53
2018-12-04T03:54:35.797Z,1006.54
2018-12-04T03:55:35.809Z,1006.59
2018-12-04T03:56:35.774Z,1006.63
2018-12-04T03:57:35.761Z,1006.67
2018-12-04T03:58:35.749Z,1006.65
2018-12-04T03:59:35.746Z,1006.64
2018-12-04T04:00:35.752Z,1006.66
2018-12-04T04:01:35.717Z,1006.70
2018-12-04T04:02:35.710Z,1006.68
2018-12-04T04:03:35.695Z,1006.65
2018-12-04T04:04:35.698Z,1006.69
2018-12-04T04:05:35.675Z,1006.68
2018-12-04T04:06:35.683Z,1006.74
2018-12-04T04:07:35.646Z,1006.76
2018-12-04T04:08:35.636Z,1006.74
2018-12-04T04:09:35.624Z,1006.73
2018-12-04T04:10:35.615Z,1006.77
2018-12-04T04:11:35.633Z,1006.80
2018-12-04T04:12:35.595Z,1006.79
2018-12-04T04:13:35.581Z,1006.88
2018-12-04T04:14:35.569Z,1006.83
2018-12-04T04:15:35.560Z,1006.82
2018-12-04T04:16:35.574Z,1006.83
2018-12-04T04:17:35.536Z,1006.88
2018-12-04T04:18:35.524Z,1006.84
2018-12-04T04:19:35.515Z,1006.86
2018-12-04T04:20:35.505Z,1006.89
2018-12-04T04:21:35.522Z,1006.87
2018-12-04T04:22:35.482Z,1006.93
2018-12-04T04:23:35.471Z,1006.96
2018-12-04T04:24:35.457Z,1006.96
2018-12-04T04:25:35.445Z,1007.01
2018-12-04T04:26:35.463Z,1007.02
2018-12-04T04:27:35.425Z,1007.04
2018-12-04T04:28:35.416Z,1007.10
2018-12-04T04:29:35.399Z,1007.12
2018-12-04T04:30:35.390Z,1007.10
2018-12-04T04:31:35.405Z,1007.11
2018-12-04T04:32:35.366Z,1007.11
2018-12-04T04:33:35.354Z,1007.09
2018-12-04T04:34:35.344Z,1007.10
2018-12-04T04:35:35.342Z,1007.15
2018-12-04T04:36:35.362Z,1007.13
2018-12-04T04:37:35.310Z,1007.13
2018-12-04T04:38:35.296Z,1007.13
2018-12-04T04:39:35.290Z,1007.13
2018-12-04T04:40:35.280Z,1007.17
2018-12-04T04:41:35.293Z,1007.16
2018-12-04T04:42:35.258Z,1007.24
2018-12-04T04:43:35.244Z,1007.23
2018-12-04T04:44:35.260Z,1007.25
2018-12-04T04:45:35.218Z,1007.27
2018-12-04T04:46:35.233Z,1007.32
2018-12-04T04:47:35.225Z,1007.33
2018-12-04T04:48:35.187Z,1007.35
2018-12-04T04:49:35.186Z,1007.40
2018-12-04T04:50:35.165Z,1007.38
2018-12-04T04:51:35.185Z,1007.37
2018-12-04T04:52:35.142Z,1007.40
2018-12-04T04:53:35.135Z,1007.49
2018-12-04T04:54:35.122Z,1007.47
2018-12-04T04:55:35.110Z,1007.53
2018-12-04T04:56:35.119Z,1007.45
2018-12-04T04:57:35.084Z,1007.50
2018-12-04T04:58:35.075Z,1007.51
2018-12-04T04:59:35.063Z,1007.47
2018-12-04T05:00:35.053Z,1007.49
2018-12-04T05:01:35.042Z,1007.50
2018-12-04T05:02:35.057Z,1007.53
2018-12-04T05:03:35.027Z,1007.55
2018-12-04T05:04:35.004Z,1007.62
2018-12-04T05:05:34.994Z,1007.61
2018-12-04T05:06:34.985Z,1007.66
2018-12-04T05:07:34.996Z,1007.65
2018-12-04T05:08:34.958Z,1007.66
2018-12-04T05:09:34.956Z,1007.69
2018-12-04T05:10:34.937Z,1007.69
2018-12-04T05:11:34.927Z,1007.70
2018-12-04T05:12:34.943Z,1007.72
2018-12-04T05:13:34.905Z,1007.80
2018-12-04T05:14:34.891Z,1007.77
2018-12-04T05:15:34.892Z,1007.77
2018-12-04T05:16:34.872Z,1007.79
2018-12-04T05:17:34.883Z,1007.81
2018-12-04T05:18:34.848Z,1007.86
2018-12-04T05:19:34.835Z,1007.88
2018-12-04T05:20:34.826Z,1007.92
2018-12-04T05:21:34.813Z,1007.88
2018-12-04T05:22:34.827Z,1007.92
2018-12-04T05:23:34.791Z,1007.95
2018-12-04T05:24:34.797Z,1007.94
2018-12-04T05:25:34.771Z,1008.00
2018-12-04T05:26:34.778Z,1007.99
2018-12-04T05:27:34.769Z,1008.03
2018-12-04T05:28:34.739Z,1008.08
2018-12-04T05:29:34.724Z,1008.09
2018-12-04T05:30:34.715Z,1008.11
2018-12-04T05:31:34.704Z,1008.14
2018-12-04T05:32:34.714Z,1008.17
2018-12-04T05:33:34.676Z,1008.16
2018-12-04T05:34:34.667Z,1008.21
2018-12-04T05:35:34.657Z,1008.22
2018-12-04T05:36:34.646Z,1008.25
2018-12-04T05:37:34.666Z,1008.28
2018-12-04T05:38:34.621Z,1008.26
2018-12-04T05:39:34.609Z,1008.22
2018-12-04T05:40:34.599Z,1008.24
2018-12-04T05:41:34.587Z,1008.27
2018-12-04T05:42:34.602Z,1008.26
2018-12-04T05:43:34.570Z,1008.27
2018-12-04T05:44:34.558Z,1008.29
2018-12-04T05:45:34.545Z,1008.31
2018-12-04T05:46:34.530Z,1008.32
2018-12-04T05:47:34.544Z,1008.38
2018-12-04T05:48:34.513Z,1008.43
2018-12-04T05:49:34.500Z,1008.42
2018-12-04T05:50:34.488Z,1008.42
2018-12-04T05:51:34.496Z,1008.47
2018-12-04T05:52:34.496Z,1008.45
2018-12-04T05:53:34.459Z,1008.52
2018-12-04T05:54:34.439Z,1008.54
2018-12-04T05:55:34.429Z,1008.62
2018-12-04T05:56:34.431Z,1008.64
2018-12-04T05:57:34.430Z,1008.63
2018-12-04T05:58:34.394Z,1008.69
2018-12-04T05:59:34.384Z,1008.65
2018-12-04T06:00:34.378Z,1008.67
2018-12-04T06:01:34.362Z,1008.69
2018-12-04T06:02:34.373Z,1008.72
2018-12-04T06:03:34.338Z,1008.75
2018-12-04T06:04:34.325Z,1008.84
2018-12-04T06:05:34.315Z,1008.84
2018-12-04T06:06:34.311Z,1008.86
2018-12-04T06:07:34.333Z,1008.90
2018-12-04T06:08:34.280Z,1008.94
2018-12-04T06:09:34.269Z,1008.91
2018-12-04T06:10:34.261Z,1008.93
2018-12-04T06:11:34.248Z,1008.93
2018-12-04T06:12:34.261Z,1008.99
2018-12-04T06:13:34.225Z,1009.03
2018-12-04T06:14:34.212Z,1009.09
2018-12-04T06:15:34.206Z,1009.12
2018-12-04T06:16:34.189Z,1009.15
2018-12-04T06:17:34.212Z,1009.20
2018-12-04T06:18:34.169Z,1009.26
2018-12-04T06:19:34.159Z,1009.26
2018-12-04T06:20:34.145Z,1009.30
2018-12-04T06:21:34.139Z,1009.30
2018-12-04T06:22:34.148Z,1009.33
2018-12-04T06:23:34.111Z,1009.32
2018-12-04T06:24:34.100Z,1009.40
2018-12-04T06:25:34.090Z,1009.45
2018-12-04T06:26:34.078Z,1009.52
2018-12-04T06:27:34.093Z,1009.45
2018-12-04T06:28:34.060Z,1009.42
2018-12-04T06:29:34.050Z,1009.41
2018-12-04T06:30:34.034Z,1009.52
2018-12-04T06:31:34.022Z,1009.55
2018-12-04T06:32:34.038Z,1009.49
2018-12-04T06:33:34.006Z,1009.51
2018-12-04T06:34:33.990Z,1009.53
2018-12-04T06:35:33.977Z,1009.56
2018-12-04T06:36:33.968Z,1009.59
2018-12-04T06:37:33.978Z,1009.68
2018-12-04T06:38:33.944Z,1009.68
2018-12-04T06:39:33.931Z,1009.70
2018-12-04T06:40:33.923Z,1009.69
2018-12-04T06:41:33.908Z,1009.69
2018-12-04T06:42:33.925Z,1009.71
2018-12-04T06:43:33.895Z,1009.75
2018-12-04T06:44:33.874Z,1009.75
2018-12-04T06:45:33.863Z,1009.76
2018-12-04T06:46:33.853Z,1009.81
2018-12-04T06:47:33.865Z,1009.88
2018-12-04T06:48:33.829Z,1009.85
2018-12-04T06:49:33.823Z,1009.89
2018-12-04T06:50:33.807Z,1009.94
2018-12-04T06:51:33.795Z,1009.96
2018-12-04T06:52:33.787Z,1009.92
2018-12-04T06:53:33.805Z,1009.96
2018-12-04T06:54:33.763Z,1010.01
2018-12-04T06:55:33.755Z,1010.04
2018-12-04T06:56:33.740Z,1010.11
2018-12-04T06:57:33.732Z,1010.12
2018-12-04T06:58:33.742Z,1010.13
2018-12-04T06:59:33.706Z,1010.16
2018-12-04T07:00:33.695Z,1010.16
2018-12-04T07:01:33.687Z,1010.23
2018-12-04T07:02:33.680Z,1010.27
2018-12-04T07:03:33.689Z,1010.35
2018-12-04T07:04:33.658Z,1010.33
2018-12-04T07:05:33.639Z,1010.35
2018-12-04T07:06:33.626Z,1010.38
2018-12-04T07:07:33.617Z,1010.42
2018-12-04T07:08:33.629Z,1010.46
2018-12-04T07:09:33.593Z,1010.46
2018-12-04T07:10:33.596Z,1010.50
2018-12-04T07:11:33.576Z,1010.48
2018-12-04T07:12:33.560Z,1010.51
2018-12-04T07:13:33.575Z,1010.52
2018-12-04T07:14:33.540Z,1010.47
2018-12-04T07:15:33.524Z,1010.55
2018-12-04T07:16:33.518Z,1010.59
2018-12-04T07:17:33.504Z,1010.57
2018-12-04T07:18:33.516Z,1010.63
2018-12-04T07:19:33.482Z,1010.67
2018-12-04T07:20:33.470Z,1010.71
2018-12-04T07:21:33.459Z,1010.74
2018-12-04T07:22:33.452Z,1010.77
2018-12-04T07:23:33.460Z,1010.75
2018-12-04T07:24:33.425Z,1010.79
2018-12-04T07:25:33.415Z,1010.84
2018-12-04T07:26:33.401Z,1010.88
2018-12-04T07:27:33.391Z,1010.90
2018-12-04T07:28:33.411Z,1010.91
2018-12-04T07:29:33.367Z,1010.88
2018-12-04T07:30:33.361Z,1010.88
2018-12-04T07:31:33.347Z,1010.88
2018-12-04T07:32:38.604Z,1010.92
2018-12-04T07:33:34.346Z,1010.94
2018-12-04T07:34:33.319Z,1010.96
2018-12-04T07:35:33.302Z,1011.06
2018-12-04T07:36:33.289Z,1011.04
2018-12-04T07:37:33.277Z,1011.07
2018-12-04T07:38:33.289Z,1011.04
2018-12-04T07:39:33.254Z,1011.07
2018-12-04T07:40:33.248Z,1011.10
2018-12-04T07:41:33.236Z,1011.09
2018-12-04T07:42:33.226Z,1011.11
2018-12-04T07:43:33.242Z,1011.20
2018-12-04T07:44:33.199Z,1011.24
2018-12-04T07:45:33.187Z,1011.22
2018-12-04T07:46:33.175Z,1011.25
2018-12-04T07:47:33.164Z,1011.26
2018-12-04T07:48:33.183Z,1011.30
2018-12-04T07:49:33.144Z,1011.32
2018-12-04T07:50:33.131Z,1011.34
2018-12-04T07:51:33.120Z,1011.32
2018-12-04T07:52:33.109Z,1011.38
2018-12-04T07:53:33.125Z,1011.46
2018-12-04T07:54:33.086Z,1011.41
2018-12-04T07:55:33.075Z,1011.46
2018-12-04T07:56:33.065Z,1011.51
2018-12-04T07:57:33.055Z,1011.50
2018-12-04T07:58:33.068Z,1011.53
2018-12-04T07:59:33.032Z,1011.54
2018-12-04T08:00:33.018Z,1011.59
2018-12-04T08:01:33.007Z,1011.65
2018-12-04T08:02:32.997Z,1011.74
2018-12-04T08:03:33.015Z,1011.69
2018-12-04T08:04:32.975Z,1011.73
2018-12-04T08:05:32.969Z,1011.80
2018-12-04T08:06:32.956Z,1011.77
2018-12-04T08:07:32.941Z,1011.75
2018-12-04T08:08:32.958Z,1011.72
2018-12-04T08:09:32.920Z,1011.79
2018-12-04T08:10:32.920Z,1011.78
2018-12-04T08:11:33.750Z,1011.79
2018-12-04T08:12:32.892Z,1011.96
2018-12-04T08:13:32.896Z,1011.91
2018-12-04T08:14:32.863Z,1011.96
2018-12-04T08:15:32.850Z,1012.04
2018-12-04T08:16:32.917Z,1012.04
2018-12-04T08:17:32.826Z,1012.02
2018-12-04T08:18:32.841Z,1012.01
2018-12-04T08:19:32.809Z,1012.03
2018-12-04T08:20:32.798Z,1012.11
2018-12-04T08:21:32.783Z,1012.17
2018-12-04T08:22:32.773Z,1012.18
2018-12-04T08:23:32.786Z,1012.21
2018-12-04T08:24:32.749Z,1012.19
2018-12-04T08:25:32.739Z,1012.22
2018-12-04T08:26:32.736Z,1012.26
2018-12-04T08:27:32.715Z,1012.25
2018-12-04T08:28:32.726Z,1012.26
2018-12-04T08:29:32.693Z,1012.28
2018-12-04T08:30:32.679Z,1012.30
2018-12-04T08:31:32.670Z,1012.31
2018-12-04T08:32:32.662Z,1012.30
2018-12-04T08:33:32.675Z,1012.30
2018-12-04T08:34:32.635Z,1012.29
2018-12-04T08:35:32.629Z,1012.30
2018-12-04T08:36:32.615Z,1012.31
2018-12-04T08:37:32.601Z,1012.32
2018-12-04T08:38:32.615Z,1012.32
2018-12-04T08:39:32.578Z,1012.32
2018-12-04T08:40:32.608Z,1012.34
2018-12-04T08:41:32.557Z,1012.34
2018-12-04T08:42:32.544Z,1012.38
2018-12-04T08:43:32.559Z,1012.40
2018-12-04T08:44:32.521Z,1012.40
2018-12-04T08:45:32.519Z,1012.40
2018-12-04T08:46:32.504Z,1012.45
2018-12-04T08:47:32.493Z,1012.48
2018-12-04T08:48:32.499Z,1012.54
2018-12-04T08:49:32.465Z,1012.57
2018-12-04T08:50:32.466Z,1012.60
2018-12-04T08:51:32.442Z,1012.61
2018-12-04T08:52:32.434Z,1012.66
2018-12-04T08:53:32.454Z,1012.70
2018-12-04T08:54:32.694Z,1012.72
2018-12-04T08:55:32.395Z,1012.76
2018-12-04T08:56:32.393Z,1012.75
2018-12-04T08:57:32.374Z,1012.84
2018-12-04T08:58:32.387Z,1012.81
2018-12-04T08:59:32.358Z,1012.89
2018-12-04T09:00:32.347Z,1012.91
2018-12-04T09:01:32.366Z,1012.96
2018-12-04T09:02:32.333Z,1012.98
2018-12-04T09:03:32.308Z,1013.00
2018-12-04T09:04:32.322Z,1013.07
2018-12-04T09:05:32.285Z,1013.08
2018-12-04T09:06:32.273Z,1013.04
2018-12-04T09:07:32.264Z,1013.15
2018-12-04T09:08:32.289Z,1013.14
2018-12-04T09:09:32.268Z,1013.10
2018-12-04T09:10:32.232Z,1013.16
2018-12-04T09:11:32.226Z,1013.14
2018-12-04T09:12:32.204Z,1013.18
2018-12-04T09:13:32.197Z,1013.21
2018-12-04T09:14:38.063Z,1013.27
2018-12-04T09:15:33.173Z,1013.30
2018-12-04T09:16:32.160Z,1013.33
2018-12-04T09:17:32.150Z,1013.35
2018-12-04T09:18:32.177Z,1013.35
2018-12-04T09:19:32.171Z,1013.36
2018-12-04T09:20:32.143Z,1013.41
2018-12-04T09:21:32.156Z,1013.44
2018-12-04T09:22:32.163Z,1013.52
2018-12-04T09:23:32.116Z,1013.48
2018-12-04T09:24:32.136Z,1013.46
2018-12-04T09:25:32.083Z,1013.50
2018-12-04T09:26:32.070Z,1013.54
2018-12-04T09:27:32.040Z,1013.55
2018-12-04T09:28:32.026Z,1013.59
2018-12-04T09:29:32.072Z,1013.63
2018-12-04T09:30:32.015Z,1013.61
2018-12-04T09:31:31.993Z,1013.55
2018-12-04T09:32:31.984Z,1013.66
2018-12-04T09:33:31.985Z,1013.72
2018-12-04T09:34:31.981Z,1013.77
2018-12-04T09:35:31.950Z,1013.78
2018-12-04T09:36:31.937Z,1013.83
2018-12-04T09:37:31.926Z,1013.77
2018-12-04T09:38:31.916Z,1013.82
2018-12-04T09:39:31.965Z,1013.82
2018-12-04T09:40:31.889Z,1013.76
2018-12-04T09:41:31.896Z,1013.80
2018-12-04T09:42:31.870Z,1013.88
2018-12-04T09:43:31.857Z,1013.86
2018-12-04T09:44:31.868Z,1013.89
2018-12-04T09:45:31.834Z,1013.92
2018-12-04T09:46:31.859Z,1013.96
2018-12-04T09:47:31.816Z,1014.00
2018-12-04T09:48:31.805Z,1014.04
2018-12-04T09:49:31.821Z,1014.07
2018-12-04T09:50:31.778Z,1014.11
2018-12-04T09:51:31.784Z,1014.14
2018-12-04T09:52:31.761Z,1014.17
2018-12-04T09:53:31.745Z,1014.10
2018-12-04T09:54:31.755Z,1014.05
2018-12-04T09:55:31.745Z,1014.07
2018-12-04T09:56:31.717Z,1014.07
2018-12-04T09:57:31.696Z,1014.07
2018-12-04T09:58:31.689Z,1014.09
2018-12-04T09:59:31.706Z,1014.13
2018-12-04T10:00:31.673Z,1014.12
2018-12-04T10:01:31.652Z,1014.16
2018-12-04T10:02:31.648Z,1014.08
2018-12-04T10:03:31.681Z,1014.04
2018-12-04T10:04:31.642Z,1014.13
2018-12-04T10:05:32.230Z,1014.13
2018-12-04T10:06:31.594Z,1014.20
2018-12-04T10:07:31.583Z,1014.16
2018-12-04T10:08:31.573Z,1014.27
2018-12-04T10:09:31.585Z,1014.29
2018-12-04T10:10:31.557Z,1014.32
2018-12-04T10:11:31.539Z,1014.38
2018-12-04T10:12:31.526Z,1014.37
2018-12-04T10:13:31.515Z,1014.43
2018-12-04T10:14:31.534Z,1014.34
2018-12-04T10:15:31.493Z,1014.34
2018-12-04T10:16:31.481Z,1014.34
2018-12-04T10:17:31.508Z,1014.47
2018-12-04T10:18:31.527Z,1014.46
2018-12-04T10:19:31.475Z,1014.47
2018-12-04T10:20:31.438Z,1014.47
2018-12-04T10:21:31.431Z,1014.45
2018-12-04T10:22:31.414Z,1014.42
2018-12-04T10:23:31.404Z,1014.45
2018-12-04T10:24:31.414Z,1014.48
2018-12-04T10:25:31.379Z,1014.49
2018-12-04T10:26:31.373Z,1014.47
2018-12-04T10:27:31.360Z,1014.47
2018-12-04T10:28:31.345Z,1014.48
2018-12-04T10:29:31.356Z,1014.44
2018-12-04T10:30:31.327Z,1014.51
2018-12-04T10:31:31.313Z,1014.49
2018-12-04T10:32:31.302Z,1014.48
2018-12-04T10:33:31.297Z,1014.56
2018-12-04T10:34:31.302Z,1014.64
2018-12-04T10:35:31.267Z,1014.55
2018-12-04T10:36:31.254Z,1014.59
2018-12-04T10:37:31.248Z,1014.54
2018-12-04T10:38:31.233Z,1014.54
2018-12-04T10:39:31.245Z,1014.57
2018-12-04T10:40:31.211Z,1014.59
2018-12-04T10:41:31.215Z,1014.63
2018-12-04T10:42:31.193Z,1014.62
2018-12-04T10:43:31.176Z,1014.71
2018-12-04T10:44:31.189Z,1014.65
2018-12-04T10:45:31.160Z,1014.63
2018-12-04T10:46:31.159Z,1014.64
2018-12-04T10:47:31.149Z,1014.64
2018-12-04T10:48:31.120Z,1014.69
2018-12-04T10:49:31.134Z,1014.65
2018-12-04T10:50:31.098Z,1014.70
2018-12-04T10:51:31.088Z,1014.69
2018-12-04T10:52:31.075Z,1014.67
2018-12-04T10:53:31.070Z,1014.62
2018-12-04T10:54:31.063Z,1014.63
2018-12-04T10:55:31.069Z,1014.66
2018-12-04T10:56:31.030Z,1014.74
2018-12-04T10:57:31.031Z,1014.72
2018-12-04T10:58:31.008Z,1014.71
2018-12-04T10:59:31.003Z,1014.73
2018-12-04T11:00:31.016Z,1014.80
2018-12-04T11:01:30.974Z,1014.74
2018-12-04T11:02:30.961Z,1014.73
2018-12-04T11:03:30.949Z,1014.73
2018-12-04T11:04:30.955Z,1014.77
2018-12-04T11:05:30.956Z,1014.74
2018-12-04T11:06:30.917Z,1014.83
2018-12-04T11:07:30.926Z,1014.86
2018-12-04T11:08:31.795Z,1014.74
2018-12-04T11:09:31.218Z,1014.76
2018-12-04T11:10:30.897Z,1014.80
2018-12-04T11:11:30.858Z,1014.81
2018-12-04T11:12:30.871Z,1014.79
2018-12-04T11:13:30.837Z,1014.80
2018-12-04T11:14:30.836Z,1014.78
2018-12-04T11:15:30.844Z,1014.77
2018-12-04T11:16:30.812Z,1014.78
2018-12-04T11:17:30.795Z,1014.82
2018-12-04T11:18:30.791Z,1014.85
2018-12-04T11:19:30.776Z,1014.85
2018-12-04T11:20:30.784Z,1014.82
2018-12-04T11:21:30.786Z,1014.86
2018-12-04T11:22:30.747Z,1014.87
2018-12-04T11:23:30.725Z,1014.90
2018-12-04T11:24:30.719Z,1014.87
2018-12-04T11:25:30.724Z,1014.98
2018-12-04T11:26:30.691Z,1014.93
2018-12-04T11:27:30.701Z,1014.96
2018-12-04T11:28:30.671Z,1014.97
2018-12-04T11:29:30.657Z,1014.97
2018-12-04T11:30:30.674Z,1015.00
2018-12-04T11:31:30.632Z,1015.02
2018-12-04T11:32:30.626Z,1015.00
2018-12-04T11:33:30.622Z,1014.99
2018-12-04T11:34:30.600Z,1014.99
2018-12-04T11:35:30.613Z,1015.02
2018-12-04T11:36:30.612Z,1015.00
2018-12-04T11:37:30.574Z,1015.02
2018-12-04T11:38:30.563Z,1014.99
2018-12-04T11:39:30.546Z,1015.07
2018-12-04T11:40:30.555Z,1015.09
2018-12-04T11:41:30.522Z,1015.11
2018-12-04T11:42:30.512Z,1015.13
2018-12-04T11:43:30.507Z,1015.19
2018-12-04T11:44:30.492Z,1015.16
2018-12-04T11:45:30.502Z,1015.18
2018-12-04T11:46:30.481Z,1015.16
2018-12-04T11:47:30.456Z,1015.21
2018-12-04T11:48:30.443Z,1015.22
2018-12-04T11:49:30.431Z,1015.24
2018-12-04T11:50:30.443Z,1015.25
2018-12-04T11:51:30.409Z,1015.26
2018-12-04T11:52:30.397Z,1015.26
2018-12-04T11:53:30.389Z,1015.29
2018-12-04T11:54:30.378Z,1015.25
2018-12-04T11:55:30.393Z,1015.26
2018-12-04T11:56:30.356Z,1015.29
2018-12-04T11:57:30.340Z,1015.25
2018-12-04T11:58:30.346Z,1015.34
2018-12-04T11:59:30.325Z,1015.30
2018-12-04T12:00:30.334Z,1015.36
2018-12-04T12:01:30.311Z,1015.34
2018-12-04T12:02:30.284Z,1015.36
2018-12-04T12:03:30.316Z,1015.35
2018-12-04T12:04:30.260Z,1015.31
2018-12-04T12:05:30.274Z,1015.33